createdAt,value
2023-04-07T00:00:00.062Z,26.03
2023-04-07T00:02:28.824Z,26.14
2023-04-07T00:04:58.687Z,26.16
2023-04-07T00:07:28.480Z,26.28
2023-04-07T00:09:56.798Z,26.40
2023-04-07T00:12:25.532Z,26.03
2023-04-07T00:14:53.886Z,25.98
2023-04-07T00:17:22.210Z,26.35
2023-04-07T00:19:50.860Z,26.15
2023-04-07T00:22:19.228Z,26.45
2023-04-07T00:24:48.931Z,26.19
2023-04-07T00:27:17.273Z,26.40
2023-04-07T00:29:46.850Z,26.24
2023-04-07T00:32:15.602Z,26.20
2023-04-07T00:34:43.979Z,26.48
2023-04-07T00:37:12.370Z,26.38
2023-04-07T00:39:40.808Z,26.59
2023-04-07T00:42:10.739Z,26.44
2023-04-07T00:44:39.188Z,26.37
2023-04-07T00:47:07.582Z,26.69
2023-04-07T00:49:37.931Z,26.39
2023-04-07T00:52:07.728Z,26.52
2023-04-07T00:54:36.246Z,26.90
2023-04-07T00:57:04.629Z,26.44
2023-04-07T00:59:34.692Z,26.79
2023-04-07T01:02:09.564Z,26.74
2023-04-07T01:04:46.093Z,27.01
2023-04-07T01:07:19.865Z,26.79
2023-04-07T01:09:56.483Z,26.86
2023-04-07T01:12:34.690Z,26.67
2023-04-07T01:15:14.781Z,26.63
2023-04-07T01:17:49.509Z,26.61
2023-04-07T01:20:22.752Z,26.54
2023-04-07T01:22:56.078Z,26.84
2023-04-07T01:25:36.692Z,26.71
2023-04-07T01:28:30.140Z,26.60
2023-04-07T01:31:01.339Z,26.34
2023-04-07T01:33:34.188Z,26.81
2023-04-07T01:36:04.507Z,26.79
2023-04-07T01:38:34.767Z,26.43
2023-04-07T01:41:04.241Z,26.50
2023-04-07T01:43:33.536Z,26.52
2023-04-07T01:46:04.757Z,26.53
2023-04-07T01:48:33.684Z,26.79
2023-04-07T01:51:02.509Z,26.95
2023-04-07T01:53:31.856Z,26.66
2023-04-07T01:56:00.276Z,26.96
2023-04-07T01:58:28.717Z,26.55
2023-04-07T02:00:57.126Z,26.79
2023-04-07T02:03:44.520Z,26.90
2023-04-07T02:06:18.129Z,27.06
2023-04-07T02:08:52.814Z,27.20
2023-04-07T02:11:23.402Z,26.86
2023-04-07T02:13:53.693Z,27.34
2023-04-07T02:16:23.541Z,26.78
2023-04-07T02:18:54.285Z,27.11
2023-04-07T02:21:23.593Z,26.99
2023-04-07T02:23:52.655Z,26.97
2023-04-07T02:26:21.446Z,27.35
2023-04-07T02:28:49.827Z,27.07
2023-04-07T02:31:18.282Z,27.31
2023-04-07T02:33:46.689Z,27.25
2023-04-07T02:36:16.456Z,27.38
2023-04-07T02:38:44.803Z,27.53
2023-04-07T02:41:13.130Z,27.44
2023-04-07T02:43:41.548Z,27.36
2023-04-07T02:46:09.858Z,27.48
2023-04-07T02:48:38.258Z,27.14
2023-04-07T02:51:06.953Z,27.25
2023-04-07T02:53:36.669Z,27.39
2023-04-07T02:56:05.880Z,27.49
2023-04-07T02:58:34.256Z,27.40
2023-04-07T03:01:02.690Z,27.39
2023-04-07T03:03:31.570Z,27.35
2023-04-07T03:06:00.105Z,27.07
2023-04-07T03:08:28.473Z,27.27
2023-04-07T03:10:58.307Z,27.19
2023-04-07T03:13:26.712Z,27.68
2023-04-07T03:15:55.083Z,27.42
2023-04-07T03:18:23.566Z,27.74
2023-04-07T03:20:53.016Z,27.52
2023-04-07T03:23:21.419Z,27.51
2023-04-07T03:25:49.718Z,27.68
2023-04-07T03:28:19.459Z,27.80
2023-04-07T03:30:47.890Z,28.06
2023-04-07T03:33:16.346Z,27.62
2023-04-07T03:35:44.934Z,28.06
2023-04-07T03:38:13.366Z,28.09
2023-04-07T03:40:41.661Z,28.28
2023-04-07T03:43:14.094Z,28.17
2023-04-07T03:45:44.170Z,28.09
2023-04-07T03:48:12.783Z,28.24
2023-04-07T03:50:41.981Z,28.04
2023-04-07T03:53:10.327Z,28.45
2023-04-07T03:55:39.095Z,28.22
2023-04-07T03:58:07.631Z,28.35
2023-04-07T04:00:36.114Z,28.43
2023-04-07T04:03:06.226Z,28.61
2023-04-07T04:05:34.603Z,28.47
2023-04-07T04:08:03.010Z,28.60
2023-04-07T04:10:31.430Z,28.43
2023-04-07T04:13:00.810Z,28.77
2023-04-07T04:15:29.214Z,28.42
2023-04-07T04:17:57.534Z,28.39
2023-04-07T04:20:27.229Z,28.34
2023-04-07T04:22:55.561Z,28.58
2023-04-07T04:25:24.322Z,28.44
2023-04-07T04:27:52.676Z,28.22
2023-04-07T04:30:21.020Z,28.40
2023-04-07T04:32:49.660Z,28.34
2023-04-07T04:35:18.234Z,28.10
2023-04-07T04:37:47.994Z,28.38
2023-04-07T04:40:16.957Z,28.20
2023-04-07T04:42:45.507Z,28.27
2023-04-07T04:45:13.981Z,28.48
2023-04-07T04:47:44.126Z,28.45
2023-04-07T04:50:13.015Z,28.10
2023-04-07T04:52:41.419Z,28.21
2023-04-07T04:55:14.589Z,27.97
2023-04-07T04:57:43.115Z,27.97
2023-04-07T05:00:13.254Z,27.93
2023-04-07T05:02:42.462Z,27.96
2023-04-07T05:05:11.557Z,28.36
2023-04-07T05:07:40.521Z,28.33
2023-04-07T05:10:12.027Z,28.32
2023-04-07T05:12:40.358Z,28.38
2023-04-07T05:15:10.662Z,28.21
2023-04-07T05:17:39.149Z,27.90
2023-04-07T05:20:11.542Z,27.94
2023-04-07T05:22:39.868Z,27.69
2023-04-07T05:25:09.998Z,27.70
2023-04-07T05:27:39.713Z,27.73
2023-04-07T05:30:10.010Z,27.80
2023-04-07T05:32:38.691Z,27.70
2023-04-07T05:35:08.488Z,27.77
2023-04-07T05:37:36.845Z,27.42
2023-04-07T05:40:06.194Z,27.59
2023-04-07T05:42:34.593Z,27.54
2023-04-07T05:45:05.269Z,27.33
2023-04-07T05:47:33.699Z,27.39
2023-04-07T05:50:02.140Z,27.64
2023-04-07T05:52:30.458Z,27.20
2023-04-07T05:54:58.795Z,27.46
2023-04-07T05:57:28.427Z,27.37
2023-04-07T05:59:56.914Z,27.23
2023-04-07T06:02:26.807Z,27.23
2023-04-07T06:04:55.426Z,27.47
2023-04-07T06:07:23.893Z,27.35
2023-04-07T06:09:52.279Z,27.01
2023-04-07T06:12:20.795Z,27.59
2023-04-07T06:14:54.444Z,27.14
2023-04-07T06:17:22.811Z,27.37
2023-04-07T06:19:52.603Z,26.98
2023-04-07T06:22:20.969Z,27.18
2023-04-07T06:24:49.349Z,27.12
2023-04-07T06:27:18.524Z,26.83
2023-04-07T06:29:46.935Z,26.89
2023-04-07T06:32:15.414Z,27.07
2023-04-07T06:34:44.068Z,26.89
2023-04-07T06:37:13.910Z,27.12
2023-04-07T06:39:42.323Z,27.04
2023-04-07T06:42:10.807Z,26.89
2023-04-07T06:44:39.102Z,26.70
2023-04-07T06:47:07.651Z,26.68
2023-04-07T06:49:37.260Z,26.66
2023-04-07T06:52:06.773Z,26.99
2023-04-07T06:54:36.483Z,26.81
2023-04-07T06:57:06.741Z,26.70
2023-04-07T06:59:35.054Z,26.83
2023-04-07T07:02:03.733Z,26.62
2023-04-07T07:04:32.221Z,26.49
2023-04-07T07:07:00.751Z,26.76
2023-04-07T07:09:29.170Z,26.71
2023-04-07T07:11:58.959Z,26.65
2023-04-07T07:14:27.351Z,26.45
2023-04-07T07:16:56.333Z,26.43
2023-04-07T07:19:24.741Z,26.49
2023-04-07T07:21:53.150Z,26.31
2023-04-07T07:24:21.571Z,25.97
2023-04-07T07:26:49.930Z,26.02
2023-04-07T07:29:19.688Z,25.86
2023-04-07T07:31:48.341Z,25.70
2023-04-07T07:34:16.856Z,25.30
2023-04-07T07:36:45.330Z,25.51
2023-04-07T07:39:15.407Z,25.35
2023-04-07T07:41:43.751Z,25.32
2023-04-07T07:44:12.199Z,25.31
2023-04-07T07:46:41.991Z,25.20
2023-04-07T07:49:10.463Z,24.95
2023-04-07T07:51:38.936Z,25.24
2023-04-07T07:54:07.432Z,25.25
2023-04-07T07:56:35.844Z,24.92
2023-04-07T07:59:06.467Z,24.95
2023-04-07T08:01:34.970Z,24.85
2023-04-07T08:04:04.906Z,24.95
2023-04-07T08:06:33.549Z,24.88
2023-04-07T08:09:02.016Z,24.85
2023-04-07T08:11:30.416Z,24.94
2023-04-07T08:13:58.852Z,24.81
2023-04-07T08:16:27.686Z,24.60
2023-04-07T08:18:56.190Z,24.67
2023-04-07T08:21:27.386Z,24.69
2023-04-07T08:23:55.881Z,24.62
2023-04-07T08:26:24.467Z,24.79
2023-04-07T08:28:52.809Z,24.53
2023-04-07T08:31:21.328Z,24.54
2023-04-07T08:33:54.081Z,24.33
2023-04-07T08:36:22.604Z,24.17
2023-04-07T08:38:52.404Z,24.49
2023-04-07T08:41:28.972Z,24.38
2023-04-07T08:43:59.405Z,24.40
2023-04-07T08:46:28.418Z,24.32
2023-04-07T08:48:58.665Z,24.35
2023-04-07T08:51:30.491Z,24.07
2023-04-07T08:54:07.389Z,24.14
2023-04-07T08:56:35.865Z,24.03
2023-04-07T08:59:05.081Z,24.03
2023-04-07T09:01:35.991Z,24.05
2023-04-07T09:04:05.299Z,24.10
2023-04-07T09:06:34.150Z,24.08
2023-04-07T09:09:05.808Z,24.16
2023-04-07T09:11:40.111Z,24.23
2023-04-07T09:14:08.992Z,24.16
2023-04-07T09:16:37.619Z,24.22
2023-04-07T09:19:06.464Z,23.99
2023-04-07T09:21:51.313Z,23.99
2023-04-07T09:24:26.238Z,23.83
2023-04-07T09:27:13.449Z,23.91
2023-04-07T09:29:45.520Z,23.96
2023-04-07T09:32:14.559Z,23.85
2023-04-07T09:34:43.355Z,23.79
2023-04-07T09:37:23.810Z,24.04
2023-04-07T09:39:54.734Z,23.93
2023-04-07T09:42:23.340Z,23.91
2023-04-07T09:44:52.600Z,23.95
2023-04-07T09:47:29.271Z,23.96
2023-04-07T09:49:59.475Z,23.98
2023-04-07T09:52:53.178Z,23.85
2023-04-07T09:55:25.819Z,23.82
2023-04-07T09:57:56.266Z,23.92
2023-04-07T10:00:25.846Z,23.70
2023-04-07T10:02:54.586Z,23.78
2023-04-07T10:05:24.006Z,23.73
2023-04-07T10:07:52.762Z,23.59
2023-04-07T10:10:21.470Z,23.71
2023-04-07T10:12:54.691Z,23.68
2023-04-07T10:15:24.315Z,23.24
2023-04-07T10:17:56.913Z,23.48
2023-04-07T10:20:26.231Z,23.43
2023-04-07T10:22:56.997Z,23.42
2023-04-07T10:25:27.299Z,23.44
2023-04-07T10:28:01.783Z,23.49
2023-04-07T10:30:33.706Z,23.33
2023-04-07T10:33:02.498Z,23.11
2023-04-07T10:36:04.726Z,23.25
2023-04-07T10:38:33.763Z,23.07
2023-04-07T10:41:02.221Z,22.99
2023-04-07T10:43:44.980Z,22.77
2023-04-07T10:46:13.422Z,22.62
2023-04-07T10:48:41.833Z,22.77
2023-04-07T10:51:27.819Z,22.65
2023-04-07T10:54:22.504Z,22.51
2023-04-07T10:57:14.617Z,22.45
2023-04-07T11:00:18.268Z,22.51
2023-04-07T11:02:46.853Z,22.62
2023-04-07T11:05:24.819Z,22.52
2023-04-07T11:07:59.393Z,22.58
2023-04-07T11:10:27.918Z,22.65
2023-04-07T11:13:05.379Z,22.64
2023-04-07T11:15:38.618Z,22.45
2023-04-07T11:18:16.944Z,22.38
2023-04-07T11:20:52.794Z,22.42
2023-04-07T11:23:23.836Z,22.64
2023-04-07T11:25:54.057Z,22.75
2023-04-07T11:28:22.504Z,23.02
2023-04-07T11:30:54.124Z,22.94
2023-04-07T11:33:25.288Z,22.94
2023-04-07T11:35:59.407Z,22.86
2023-04-07T11:38:30.048Z,23.15
2023-04-07T11:40:58.770Z,22.81
2023-04-07T11:43:29.040Z,22.93
2023-04-07T11:46:10.260Z,22.97
2023-04-07T11:48:41.042Z,22.89
2023-04-07T11:51:17.910Z,22.76
2023-04-07T11:53:47.385Z,22.64
2023-04-07T11:56:19.290Z,22.55
2023-04-07T11:58:51.279Z,22.64
2023-04-07T12:01:21.881Z,22.02
2023-04-07T12:04:02.175Z,21.86
2023-04-07T12:06:34.836Z,21.55
2023-04-07T12:09:04.431Z,21.28
2023-04-07T12:11:33.912Z,21.23
2023-04-07T12:14:04.998Z,21.11
2023-04-07T12:16:39.767Z,20.98
2023-04-07T12:19:08.211Z,20.87
2023-04-07T12:24:05.196Z,20.50
2023-04-07T12:26:33.613Z,20.47
2023-04-07T12:29:05.268Z,19.80
2023-04-07T12:31:35.641Z,20.31
2023-04-07T12:34:04.705Z,20.24
2023-04-07T12:36:33.514Z,20.48
2023-04-07T12:39:01.842Z,20.46
2023-04-07T12:41:30.273Z,20.45
2023-04-07T12:43:58.711Z,20.45
2023-04-07T12:46:27.156Z,20.39
2023-04-07T12:48:57.046Z,20.36
2023-04-07T12:51:26.186Z,20.42
2023-04-07T12:53:54.819Z,20.30
2023-04-07T12:56:24.203Z,19.91
2023-04-07T12:58:53.484Z,20.00
2023-04-07T13:01:22.285Z,20.14
2023-04-07T13:03:51.523Z,19.85
2023-04-07T13:06:22.332Z,19.80
2023-04-07T13:08:50.680Z,19.69
2023-04-07T13:11:19.005Z,19.47
2023-04-07T13:13:47.683Z,19.56
2023-04-07T13:16:16.291Z,19.61
2023-04-07T13:18:44.705Z,19.81
2023-04-07T13:21:42.805Z,19.97
2023-04-07T13:24:03.065Z,20.16
2023-04-07T13:26:31.506Z,20.40
2023-04-07T13:28:59.847Z,20.45
2023-04-07T13:31:28.557Z,20.58
2023-04-07T13:33:56.964Z,20.64
2023-04-07T13:36:26.384Z,20.84
2023-04-07T13:38:54.753Z,20.96
2023-04-07T13:41:24.643Z,21.02
2023-04-07T13:43:53.070Z,21.17
2023-04-07T13:46:28.398Z,21.07
2023-04-07T13:48:58.025Z,21.15
2023-04-07T13:51:26.425Z,21.18
2023-04-07T13:53:54.806Z,21.36
2023-04-07T13:56:24.806Z,21.33
2023-04-07T13:58:54.111Z,21.37
2023-04-07T14:01:22.769Z,21.60
2023-04-07T14:03:51.398Z,21.83
2023-04-07T14:06:22.802Z,21.85
2023-04-07T14:08:51.453Z,21.68
2023-04-07T14:11:20.299Z,21.88
2023-04-07T14:13:50.931Z,21.68
2023-04-07T14:16:19.531Z,21.46
2023-04-07T14:18:49.558Z,21.62
2023-04-07T14:21:17.984Z,21.64
2023-04-07T14:23:46.385Z,21.10
2023-04-07T14:26:15.107Z,21.12
2023-04-07T14:28:43.462Z,21.10
2023-04-07T14:31:16.891Z,21.04
2023-04-07T14:33:46.330Z,21.23
2023-04-07T14:36:17.462Z,21.43
2023-04-07T14:38:45.958Z,21.44
2023-04-07T14:41:14.575Z,21.64
2023-04-07T14:43:43.580Z,21.65
2023-04-07T14:46:12.328Z,21.63
2023-04-07T14:48:42.236Z,21.95
2023-04-07T14:51:14.331Z,22.08
2023-04-07T14:53:43.528Z,22.29
2023-04-07T14:56:11.961Z,22.46
2023-04-07T14:58:40.806Z,22.78
2023-04-07T15:01:09.410Z,23.00
2023-04-07T15:03:38.032Z,23.00
2023-04-07T15:06:10.275Z,23.16
2023-04-07T15:08:38.922Z,23.32
2023-04-07T15:11:08.166Z,23.32
2023-04-07T15:13:37.286Z,23.40
2023-04-07T15:16:11.526Z,23.59
2023-04-07T15:18:42.112Z,23.58
2023-04-07T15:21:13.568Z,23.61
2023-04-07T15:23:42.841Z,23.58
2023-04-07T15:26:11.761Z,23.62
2023-04-07T15:28:40.242Z,23.57
2023-04-07T15:31:10.106Z,23.77
2023-04-07T15:33:39.947Z,23.75
2023-04-07T15:36:09.772Z,23.64
2023-04-07T15:38:40.541Z,23.81
2023-04-07T15:41:09.114Z,23.97
2023-04-07T15:43:37.843Z,23.93
2023-04-07T15:46:06.332Z,23.99
2023-04-07T15:48:34.845Z,24.26
2023-04-07T15:51:03.236Z,24.42
2023-04-07T15:53:31.641Z,24.77
2023-04-07T15:56:01.503Z,24.98
2023-04-07T15:58:30.104Z,25.05
2023-04-07T16:00:58.431Z,25.23
2023-04-07T16:03:28.194Z,25.29
2023-04-07T16:05:57.103Z,25.61
2023-04-07T16:08:25.918Z,25.56
2023-04-07T16:10:54.298Z,25.85
2023-04-07T16:13:24.117Z,25.92
2023-04-07T16:15:57.755Z,26.01
2023-04-07T16:18:26.233Z,26.21
2023-04-07T16:20:54.619Z,26.53
2023-04-07T16:23:23.254Z,26.29
2023-04-07T16:25:51.674Z,26.40
2023-04-07T16:28:20.080Z,26.70
2023-04-07T16:30:49.910Z,26.80
2023-04-07T16:33:18.334Z,26.83
2023-04-07T16:35:46.707Z,27.02
2023-04-07T16:38:15.124Z,27.13
2023-04-07T16:41:00.765Z,27.24
2023-04-07T16:43:31.454Z,27.30
2023-04-07T16:46:01.327Z,27.49
2023-04-07T16:48:30.517Z,27.50
2023-04-07T16:50:58.867Z,27.75
2023-04-07T16:53:27.320Z,27.77
2023-04-07T16:55:56.321Z,28.06
2023-04-07T16:58:24.663Z,28.34
2023-04-07T17:00:52.997Z,28.59
2023-04-07T17:03:22.866Z,28.78
2023-04-07T17:05:51.382Z,28.90
2023-04-07T17:08:19.757Z,28.98
2023-04-07T17:10:48.084Z,29.15
2023-04-07T17:13:16.531Z,29.06
2023-04-07T17:15:44.901Z,29.10
2023-04-07T17:18:13.354Z,29.26
2023-04-07T17:20:43.172Z,29.30
2023-04-07T17:23:11.692Z,29.50
2023-04-07T17:25:39.997Z,29.57
2023-04-07T17:28:08.455Z,29.31
2023-04-07T17:30:37.784Z,29.38
2023-04-07T17:33:08.368Z,29.41
2023-04-07T17:35:36.911Z,29.43
2023-04-07T17:38:07.392Z,29.55
2023-04-07T17:40:35.973Z,29.60
2023-04-07T17:43:04.657Z,29.59
2023-04-07T17:45:33.165Z,29.73
2023-04-07T17:48:03.757Z,29.90
2023-04-07T17:50:32.772Z,29.95
2023-04-07T17:53:01.479Z,30.21
2023-04-07T17:55:31.197Z,30.30
2023-04-07T17:58:01.168Z,30.35
2023-04-07T18:00:30.655Z,30.32
2023-04-07T18:02:59.346Z,30.37
2023-04-07T18:05:30.932Z,30.32
2023-04-07T18:07:59.657Z,30.42
2023-04-07T18:10:28.084Z,30.52
2023-04-07T18:12:57.816Z,30.59
2023-04-07T18:15:26.620Z,30.51
2023-04-07T18:17:55.149Z,30.71
2023-04-07T18:20:23.666Z,30.65
2023-04-07T18:22:53.633Z,30.66
2023-04-07T18:25:22.230Z,30.79
2023-04-07T18:27:50.912Z,30.67
2023-04-07T18:30:21.570Z,30.76
2023-04-07T18:32:50.263Z,30.73
2023-04-07T18:35:18.639Z,30.75
2023-04-07T18:37:47.096Z,31.01
2023-04-07T18:40:16.491Z,30.88
2023-04-07T18:42:45.237Z,30.89
2023-04-07T18:45:13.831Z,30.95
2023-04-07T18:47:43.598Z,30.81
2023-04-07T18:50:12.383Z,30.82
2023-04-07T18:52:41.078Z,30.90
2023-04-07T18:55:11.796Z,31.05
2023-04-07T18:57:40.557Z,31.02
2023-04-07T19:00:10.546Z,31.05
2023-04-07T19:02:44.342Z,30.98
2023-04-07T19:05:15.347Z,31.23
2023-04-07T19:07:43.770Z,31.25
2023-04-07T19:10:12.602Z,31.24
2023-04-07T19:12:41.356Z,31.08
2023-04-07T19:15:12.149Z,31.25
2023-04-07T19:17:40.722Z,31.25
2023-04-07T19:20:10.579Z,31.38
2023-04-07T19:22:40.618Z,31.57
2023-04-07T19:25:10.704Z,31.57
2023-04-07T19:27:39.612Z,31.67
2023-04-07T19:30:09.821Z,31.84
2023-04-07T19:32:38.253Z,31.82
2023-04-07T19:35:08.319Z,31.95
2023-04-07T19:37:37.903Z,31.85
2023-04-07T19:40:09.891Z,32.06
2023-04-07T19:42:39.348Z,32.02
2023-04-07T19:45:09.481Z,32.12
2023-04-07T19:47:38.562Z,32.10
2023-04-07T19:50:11.315Z,32.16
2023-04-07T19:52:40.075Z,32.23
2023-04-07T19:55:11.045Z,32.23
2023-04-07T19:57:40.423Z,32.35
2023-04-07T20:00:10.935Z,32.55
2023-04-07T20:02:39.563Z,32.51
2023-04-07T20:05:09.007Z,32.45
2023-04-07T20:07:37.533Z,32.54
2023-04-07T20:10:07.873Z,32.61
2023-04-07T20:12:37.769Z,32.86
2023-04-07T20:15:08.150Z,32.53
2023-04-07T20:17:37.339Z,32.71
2023-04-07T20:20:07.325Z,32.66
2023-04-07T20:22:36.161Z,32.57
2023-04-07T20:25:05.566Z,32.57
2023-04-07T20:27:34.232Z,32.84
2023-04-07T20:30:04.493Z,32.88
2023-04-07T20:32:32.906Z,32.75
2023-04-07T20:35:02.732Z,32.79
2023-04-07T20:37:31.161Z,32.87
2023-04-07T20:39:59.559Z,32.87
2023-04-07T20:42:27.975Z,32.88
2023-04-07T20:45:02.330Z,32.94
2023-04-07T20:47:36.017Z,32.96
2023-04-07T20:50:04.809Z,32.97
2023-04-07T20:52:33.225Z,32.95
2023-04-07T20:55:01.676Z,33.03
2023-04-07T20:57:30.106Z,32.98
2023-04-07T20:59:58.523Z,33.04
2023-04-07T21:02:27.135Z,33.15
2023-04-07T21:04:57.180Z,33.17
2023-04-07T21:07:25.948Z,33.12
2023-04-07T21:09:54.345Z,33.31
2023-04-07T21:12:23.034Z,33.40
2023-04-07T21:14:51.478Z,33.49
2023-04-07T21:17:20.541Z,33.47
2023-04-07T21:19:48.953Z,33.46
2023-04-07T21:22:18.597Z,33.51
2023-04-07T21:24:46.903Z,33.77
2023-04-07T21:27:15.821Z,33.90
2023-04-07T21:29:44.253Z,34.09
2023-04-07T21:32:14.131Z,33.98
2023-04-07T21:34:42.610Z,33.97
2023-04-07T21:37:10.960Z,33.98
2023-04-07T21:39:40.822Z,34.08
2023-04-07T21:42:09.233Z,33.96
2023-04-07T21:44:37.584Z,34.21
2023-04-07T21:47:05.939Z,34.28
2023-04-07T21:49:34.274Z,34.09
2023-04-07T21:52:02.722Z,34.24
2023-04-07T21:54:31.118Z,34.31
2023-04-07T21:57:01.134Z,34.48
2023-04-07T21:59:29.595Z,34.39
2023-04-07T22:01:59.908Z,34.27
2023-04-07T22:04:29.567Z,34.23
2023-04-07T22:06:58.179Z,34.40
2023-04-07T22:09:27.284Z,34.32
2023-04-07T22:11:56.022Z,34.35
2023-04-07T22:14:26.598Z,34.54
2023-04-07T22:16:55.086Z,34.44
2023-04-07T22:19:23.874Z,34.40
2023-04-07T22:21:52.181Z,34.46
2023-04-07T22:24:20.618Z,34.38
2023-04-07T22:26:48.969Z,34.29
2023-04-07T22:29:17.342Z,34.27
2023-04-07T22:31:47.168Z,34.67
2023-04-07T22:34:15.598Z,34.61
2023-04-07T22:36:44.003Z,34.93
2023-04-07T22:39:12.515Z,35.21
2023-04-07T22:41:40.980Z,35.58
2023-04-07T22:44:09.432Z,35.91
2023-04-07T22:46:37.900Z,36.35
2023-04-07T22:49:08.298Z,36.81
2023-04-07T22:51:37.350Z,36.79
2023-04-07T22:54:06.116Z,37.28
2023-04-07T22:56:34.543Z,37.83
2023-04-07T22:59:05.810Z,38.18
2023-04-07T23:01:34.652Z,38.71
2023-04-07T23:04:03.188Z,38.87
2023-04-07T23:06:33.483Z,39.16
2023-04-07T23:09:01.838Z,39.22
2023-04-07T23:11:30.188Z,39.20
2023-04-07T23:13:58.584Z,39.08
2023-04-07T23:16:27.027Z,39.34
2023-04-07T23:18:55.435Z,39.28
2023-04-07T23:21:23.830Z,39.57
2023-04-07T23:23:54.270Z,39.69
2023-04-07T23:26:22.634Z,39.87
2023-04-07T23:28:51.353Z,40.06
2023-04-07T23:31:20.023Z,40.34
2023-04-07T23:33:48.864Z,40.48
2023-04-07T23:36:17.280Z,40.73
2023-04-07T23:38:45.912Z,41.03
2023-04-07T23:41:15.618Z,40.99
2023-04-07T23:43:43.939Z,41.26
2023-04-07T23:46:12.290Z,41.56
2023-04-07T23:48:40.974Z,41.82
2023-04-07T23:51:09.476Z,41.84
2023-04-07T23:53:37.817Z,41.74
2023-04-07T23:56:06.562Z,41.87
2023-04-07T23:58:36.274Z,42.29
